Time;durP1;ratioP1;P1;durP2;ratioP2;P2;SDS_P1;SDS_P2;PMS_P1;PMS_P2;Temp;Humidity;BMP_temperature;BMP_pressure;BME280_temperature;BME280_humidity;BME280_pressure;Samples;Min_cycle;Max_cycle;Signal;HPM_P1;HPM_P2
2021/12/08 00:01:01;;;;;;;15.07;7.63;;;;;;;7.39;77.40;99115.41;4949793;28;20030;-60
2021/12/08 00:03:28;;;;;;;13.85;7.20;;;;;;;7.46;76.99;99130.09;4953870;28;20577;-60
2021/12/08 00:05:54;;;;;;;15.25;7.60;;;;;;;7.42;77.48;99116.28;4952550;28;20085;-60
2021/12/08 00:08:21;;;;;;;14.20;8.02;;;;;;;7.45;77.44;99121.44;4956704;28;20339;-60
2021/12/08 00:13:29;;;;;;;11.57;7.22;;;;;;;7.61;77.33;99123.16;4950121;28;20133;-61
2021/12/08 00:15:58;;;;;;;12.18;7.45;;;;;;;7.72;76.92;99131.78;4949392;28;20534;-60
2021/12/08 00:18:27;;;;;;;12.80;7.43;;;;;;;7.72;77.15;99121.41;4953029;28;20042;-60
2021/12/08 00:20:55;;;;;;;13.27;7.55;;;;;;;7.74;77.32;99121.41;4942182;28;20708;-60
2021/12/08 00:23:22;;;;;;;12.90;7.50;;;;;;;7.77;77.25;99104.94;4949718;28;20334;-60
2021/12/08 00:25:48;;;;;;;11.68;7.03;;;;;;;7.73;77.23;99101.50;4956532;28;20046;-59
2021/12/08 00:28:14;;;;;;;12.48;7.05;;;;;;;7.86;76.75;99100.59;4946546;28;20471;-60
2021/12/08 00:30:42;;;;;;;11.73;6.97;;;;;;;7.83;76.64;99104.91;4946628;28;20045;-60
2021/12/08 00:33:08;;;;;;;11.35;6.75;;;;;;;7.84;76.51;99099.72;4953326;28;20607;-61
2021/12/08 00:35:35;;;;;;;12.07;6.80;;;;;;;7.84;76.48;99114.44;4929726;28;20497;-60
2021/12/08 00:38:00;;;;;;;12.15;6.60;;;;;;;7.86;76.65;99113.56;4951316;28;20057;-61
2021/12/08 00:40:27;;;;;;;11.88;6.78;;;;;;;7.85;76.49;99111.84;4952485;28;20334;-59
2021/12/08 00:42:52;;;;;;;16.38;7.15;;;;;;;7.89;76.69;99117.88;4948321;28;20058;-60
2021/12/08 00:45:19;;;;;;;14.52;7.13;;;;;;;7.90;76.48;99114.41;4956544;28;20078;-60
2021/12/08 00:47:45;;;;;;;11.52;6.90;;;;;;;7.91;76.54;99109.22;4950964;28;20085;-61
2021/12/08 00:50:11;;;;;;;10.60;6.75;;;;;;;7.90;76.81;99107.50;4954990;28;20375;-62
2021/12/08 00:52:37;;;;;;;15.10;7.13;;;;;;;7.87;77.10;99127.41;4934354;28;20108;-60
2021/12/08 00:55:07;;;;;;;12.30;6.70;;;;;;;7.97;76.80;99123.91;4955949;28;20050;-60
2021/12/08 00:57:33;;;;;;;11.15;6.30;;;;;;;8.01;76.71;99125.59;4953638;28;20335;-61
2021/12/08 01:00:02;;;;;;;12.70;6.57;;;;;;;7.94;76.57;99134.28;4954054;28;20455;-60
2021/12/08 01:02:27;;;;;;;12.35;6.30;;;;;;;7.98;77.02;99139.47;4951712;28;20130;-60
2021/12/08 01:04:53;;;;;;;12.18;6.05;;;;;;;8.03;76.83;99142.91;4943971;28;20045;-60
2021/12/08 02:14:42;;;;;;;13.63;5.65;;;;;;;8.26;76.04;99201.63;4928216;28;20089;-60
2021/12/08 02:17:10;;;;;;;9.15;5.07;;;;;;;8.30;76.08;99206.84;4941562;28;20510;-60
2021/12/08 02:19:37;;;;;;;10.88;5.32;;;;;;;8.29;75.81;99205.09;4945262;28;20034;-59
2021/12/08 02:22:02;;;;;;;11.85;5.35;;;;;;;8.33;75.85;99214.63;4953341;28;20038;-59
2021/12/08 02:24:33;;;;;;;10.50;5.13;;;;;;;8.34;75.42;99216.34;4943566;28;20065;-60
2021/12/08 02:26:59;;;;;;;11.02;4.65;;;;;;;8.36;75.52;99217.19;4943234;28;20058;-60
2021/12/08 02:29:39;;;;;;;10.98;4.68;;;;;;;8.40;75.30;99233.66;4950164;28;20059;-60
2021/12/08 02:46:36;;;;;;;9.40;4.53;;;;;;;8.40;75.06;99224.13;4951220;28;20039;-60
2021/12/08 02:48:41;;;;;;;14.60;5.90;;;;;;;8.44;75.11;99209.38;4943852;28;21125;-60
2021/12/08 02:51:07;;;;;;;18.63;5.93;;;;;;;8.46;75.22;99207.66;4955684;28;20042;-60
2021/12/08 02:53:33;;;;;;;11.27;5.53;;;;;;;8.45;75.43;99208.50;4953508;28;20466;-59
2021/12/08 02:55:58;;;;;;;10.95;5.72;;;;;;;8.41;75.39;99212.00;4949053;28;20518;-60
2021/12/08 02:58:25;;;;;;;12.40;5.55;;;;;;;8.44;74.87;99219.75;4939186;28;20057;-61
2021/12/08 03:01:00;;;;;;;14.57;5.22;;;;;;;8.39;74.64;99226.72;4951002;28;20050;-59
2021/12/08 03:03:26;;;;;;;8.93;4.57;;;;;;;8.32;74.58;99225.00;4952225;28;20054;-60
2021/12/08 03:05:51;;;;;;;12.20;4.60;;;;;;;8.32;73.88;99212.03;4952850;28;20053;-60
2021/12/08 03:08:19;;;;;;;9.52;3.75;;;;;;;8.33;73.64;99217.22;4952880;28;20046;-60
2021/12/08 03:10:53;;;;;;;6.93;2.85;;;;;;;8.19;72.93;99231.94;4945312;28;20555;-60
2021/12/08 03:13:27;;;;;;;6.72;2.50;;;;;;;8.13;72.48;99224.19;4948881;28;20061;-60
2021/12/08 03:15:52;;;;;;;5.70;1.90;;;;;;;8.10;72.61;99226.78;4952148;28;20471;-60
2021/12/08 03:18:18;;;;;;;6.55;1.98;;;;;;;8.14;72.22;99223.31;4949841;28;20047;-60
2021/12/08 03:20:45;;;;;;;3.40;1.50;;;;;;;8.08;72.26;99220.75;4944679;28;20047;-59
2021/12/08 03:23:21;;;;;;;3.70;1.50;;;;;;;8.07;72.06;99227.66;4957682;28;20038;-59
2021/12/08 03:25:55;;;;;;;6.47;2.00;;;;;;;7.97;72.27;99227.69;4969718;28;20047;-59
2021/12/08 03:28:28;;;;;;;4.30;1.90;;;;;;;7.89;72.34;99219.06;4952001;28;20133;-59
2021/12/08 03:31:04;;;;;;;8.68;2.40;;;;;;;7.81;72.26;99226.00;4944414;28;20035;-60
2021/12/08 03:33:29;;;;;;;6.85;2.35;;;;;;;7.84;72.18;99224.25;4951097;28;20069;-59
2021/12/08 03:35:58;;;;;;;7.20;2.67;;;;;;;7.62;73.23;99231.19;4959488;28;20101;-60
2021/12/08 03:38:25;;;;;;;7.43;2.70;;;;;;;7.65;73.11;99225.16;4952287;28;20268;-61
2021/12/08 03:40:51;;;;;;;6.30;2.58;;;;;;;7.59;73.38;99226.03;4943362;28;20222;-60
2021/12/08 03:43:19;;;;;;;7.85;2.60;;;;;;;7.58;73.25;99226.88;4956840;28;20078;-61
2021/12/08 03:45:48;;;;;;;8.77;2.80;;;;;;;7.50;73.57;99235.56;4972339;28;20050;-60
2021/12/08 03:48:47;;;;;;;12.98;2.70;;;;;;;7.48;73.61;99248.50;4956486;28;20038;-59
2021/12/08 03:51:14;;;;;;;9.35;2.60;;;;;;;7.50;73.53;99248.53;4953900;28;20502;-60
2021/12/08 03:53:39;;;;;;;7.13;2.50;;;;;;;7.36;74.06;99247.66;4947740;28;20043;-60
2021/12/08 03:56:06;;;;;;;6.85;2.60;;;;;;;7.40;73.46;99250.22;4962371;28;20601;-60
2021/12/08 03:58:31;;;;;;;7.72;2.58;;;;;;;7.26;74.29;99255.41;4958593;28;20066;-60
2021/12/08 04:00:58;;;;;;;6.57;2.40;;;;;;;7.27;73.89;99249.38;4949888;28;20608;-59
2021/12/08 04:03:26;;;;;;;7.97;2.55;;;;;;;7.29;73.72;99254.56;4953190;28;20451;-61
2021/12/08 04:05:55;;;;;;;8.18;2.40;;;;;;;7.20;73.97;99265.75;4951325;28;20041;-60
2021/12/08 04:08:32;;;;;;;6.43;2.42;;;;;;;7.16;74.05;99265.75;4951182;28;20055;-60
2021/12/08 04:11:00;;;;;;;9.80;2.45;;;;;;;7.30;73.57;99259.75;4953462;28;20052;-61
2021/12/08 04:13:29;;;;;;;11.05;2.67;;;;;;;7.24;73.71;99253.69;4954840;28;21482;-60
2021/12/08 04:15:55;;;;;;;11.85;2.35;;;;;;;7.18;73.95;99249.38;4954004;28;20149;-60
2021/12/08 04:18:21;;;;;;;7.97;2.45;;;;;;;7.09;73.63;99235.53;4955366;28;20495;-61
2021/12/08 04:20:51;;;;;;;6.88;2.83;;;;;;;7.08;73.56;99244.16;4948493;28;20042;-61
2021/12/08 04:23:18;;;;;;;8.02;2.55;;;;;;;7.01;73.64;99253.66;4947985;28;20476;-60
2021/12/08 04:25:49;;;;;;;8.98;2.90;;;;;;;7.01;73.76;99269.22;4954302;28;20825;-61
2021/12/08 04:28:18;;;;;;;5.85;2.92;;;;;;;6.91;74.23;99268.31;4956369;28;20280;-60
2021/12/08 04:30:49;;;;;;;9.55;3.08;;;;;;;6.89;74.24;99269.19;4952652;28;20042;-59
2021/12/08 04:33:15;;;;;;;10.57;2.70;;;;;;;6.88;74.14;99285.59;4944261;28;20437;-60
2021/12/08 04:35:46;;;;;;;7.40;2.78;;;;;;;6.89;74.34;99287.31;4957488;28;20045;-61
2021/12/08 04:38:17;;;;;;;8.18;2.90;;;;;;;6.86;74.33;99287.31;4954987;28;20109;-61
2021/12/08 04:41:06;;;;;;;9.30;3.15;;;;;;;6.84;74.57;99297.66;4940598;28;20666;-59
2021/12/08 04:44:25;;;;;;;11.57;3.30;;;;;;;6.86;74.27;99295.06;4954395;28;20436;-61
2021/12/08 04:49:31;;;;;;;14.13;3.30;;;;;;;6.84;73.92;99279.50;4953696;28;20132;-59
2021/12/08 05:00:58;;;;;;;14.07;4.03;;;;;;;6.73;74.17;99278.63;4953555;28;20054;-60
2021/12/08 05:08:23;;;;;;;;;;;;;;;6.76;73.87;99282.97;4949812;28;20064;-60
2021/12/08 05:10:51;;;;;;;10.95;3.20;;;;;;;6.76;73.38;99288.13;4941159;28;20175;-59
2021/12/08 05:13:17;;;;;;;11.70;3.08;;;;;;;6.70;73.59;99286.41;4956448;28;20072;-61
2021/12/08 05:15:56;;;;;;;12.82;3.22;;;;;;;6.65;73.51;99289.84;4951277;28;20047;-59
2021/12/08 05:18:22;;;;;;;13.38;3.40;;;;;;;6.67;73.15;99293.28;4954832;28;20051;-61
2021/12/08 05:21:03;;;;;;;9.98;2.88;;;;;;;6.63;73.65;99291.53;4947759;28;20615;-60
2021/12/08 05:23:35;;;;;;;14.00;3.50;;;;;;;6.50;74.07;99288.91;4948962;28;20426;-60
2021/12/08 05:26:10;;;;;;;11.77;2.88;;;;;;;6.50;73.50;99291.50;4949707;28;20112;-60
2021/12/08 05:28:36;;;;;;;;;;;;;;;6.50;73.68;99296.66;4949539;28;20318;-59
2021/12/08 05:31:10;;;;;;;11.57;2.63;;;;;;;6.39;74.30;99290.59;4951941;28;19918;-61
2021/12/08 05:33:37;;;;;;;9.57;2.40;;;;;;;6.46;73.93;99305.25;4949524;28;20548;-59
2021/12/08 05:36:03;;;;;;;12.77;2.35;;;;;;;6.51;73.50;99303.59;4951303;28;20043;-60
2021/12/08 05:38:29;;;;;;;9.68;2.20;;;;;;;6.38;73.87;99306.09;4956610;28;20049;-59
2021/12/08 05:41:08;;;;;;;10.93;2.33;;;;;;;6.48;73.33;99329.44;4940399;28;20066;-59
2021/12/08 05:43:33;;;;;;;13.93;2.45;;;;;;;6.51;73.49;99338.97;4954293;28;20046;-60
2021/12/08 05:45:59;;;;;;;12.70;2.30;;;;;;;6.58;73.21;99348.50;4950502;28;20035;-59
2021/12/08 05:48:27;;;;;;;8.23;2.40;;;;;;;6.48;73.26;99338.94;4956113;28;20070;-60
2021/12/08 05:51:05;;;;;;;10.05;2.50;;;;;;;6.58;72.94;99339.84;4948956;28;20318;-59
2021/12/08 05:53:32;;;;;;;9.48;2.15;;;;;;;6.60;72.92;99340.72;4950704;28;20050;-60
2021/12/08 05:55:59;;;;;;;12.27;2.30;;;;;;;6.57;72.91;99333.81;4948592;28;20042;-61
2021/12/08 05:58:26;;;;;;;9.38;2.10;;;;;;;6.58;72.95;99337.28;4955533;28;20511;-60
2021/12/08 06:00:57;;;;;;;8.27;2.00;;;;;;;6.53;72.74;99340.69;4939495;28;20412;-60
2021/12/08 06:03:22;;;;;;;11.23;2.30;;;;;;;6.50;72.77;99345.84;4950922;28;20058;-59
2021/12/08 06:05:50;;;;;;;11.63;2.13;;;;;;;6.48;72.85;99350.16;4934834;28;20489;-59
2021/12/08 06:08:16;;;;;;;8.82;2.08;;;;;;;6.50;72.87;99345.00;4948768;28;20109;-60
2021/12/08 06:10:44;;;;;;;9.30;2.20;;;;;;;6.47;72.56;99344.97;4945181;28;20051;-60
2021/12/08 06:13:12;;;;;;;10.73;2.30;;;;;;;6.41;72.56;99360.47;4948933;28;20113;-59
2021/12/08 06:15:40;;;;;;;8.63;2.33;;;;;;;6.31;73.07;99384.56;4952200;28;20536;-60
2021/12/08 06:18:08;;;;;;;10.88;2.42;;;;;;;6.38;72.55;99389.78;4955305;28;20034;-60
2021/12/08 06:20:35;;;;;;;9.35;1.88;;;;;;;6.37;72.82;99382.88;4963851;28;20050;-59
2021/12/08 06:23:01;;;;;;;9.25;2.30;;;;;;;6.39;72.68;99380.31;4948688;28;20134;-60
2021/12/08 06:25:27;;;;;;;11.93;2.10;;;;;;;6.37;72.80;99392.38;4952269;28;20588;-60
2021/12/08 06:27:53;;;;;;;10.55;2.40;;;;;;;6.33;72.79;99395.81;4951256;28;20133;-59
2021/12/08 06:30:22;;;;;;;8.63;2.22;;;;;;;6.15;73.51;99398.25;4947922;28;20142;-60
2021/12/08 06:32:48;;;;;;;18.73;2.30;;;;;;;6.16;73.78;99398.25;4946755;28;20034;-60
2021/12/08 06:35:21;;;;;;;9.90;2.03;;;;;;;6.30;73.32;99398.34;4954132;28;20035;-59
2021/12/08 06:37:49;;;;;;;9.75;1.98;;;;;;;6.34;73.01;99392.38;4947665;28;20047;-60
2021/12/08 06:40:20;;;;;;;7.72;2.22;;;;;;;6.32;72.90;99394.06;4955145;28;20055;-60
2021/12/08 06:42:52;;;;;;;13.43;2.47;;;;;;;6.39;72.67;99403.59;4938404;28;20524;-60
2021/12/08 06:45:21;;;;;;;8.90;1.98;;;;;;;6.32;72.85;99407.88;4927868;28;20050;-60
2021/12/08 06:47:48;;;;;;;12.55;2.90;;;;;;;6.31;72.81;99402.69;4953531;28;20385;-60
2021/12/08 06:52:57;;;;;;;9.55;2.45;;;;;;;6.27;72.77;99396.63;5045258;23;20064;-73
2021/12/08 06:55:32;;;;;;;15.60;2.25;;;;;;;6.28;72.90;99395.75;4874810;29;20052;-72
2021/12/08 06:58:03;;;;;;;12.18;2.20;;;;;;;6.28;72.86;99394.91;4871161;29;20052;-73
2021/12/08 07:01:36;;;;;;;10.10;2.30;;;;;;;6.29;72.84;99413.00;4861907;29;20758;-72
2021/12/08 07:03:32;;;;;;;12.07;2.35;;;;;;;6.35;72.67;99412.19;4860858;29;20048;-72
2021/12/08 07:06:09;;;;;;;12.38;2.67;;;;;;;6.38;72.27;99409.63;4871881;29;20075;-72
2021/12/08 07:08:49;;;;;;;13.65;2.53;;;;;;;6.32;72.48;99417.34;4874852;29;20182;-73
2021/12/08 07:11:17;;;;;;;13.77;2.70;;;;;;;6.37;72.33;99420.84;4878355;29;20059;-73
2021/12/08 07:13:44;;;;;;;11.38;2.50;;;;;;;6.44;72.15;99407.09;4860455;29;21006;-72
2021/12/08 07:16:14;;;;;;;9.90;2.63;;;;;;;6.35;71.90;99422.53;4892587;29;20386;-73
2021/12/08 07:18:56;;;;;;;12.40;2.30;;;;;;;6.31;72.39;99416.50;4870857;28;20048;-72
2021/12/08 07:21:26;;;;;;;12.30;2.38;;;;;;;6.29;72.16;99422.50;4871020;29;20127;-72
2021/12/08 07:23:58;;;;;;;17.90;2.83;;;;;;;6.26;72.61;99427.66;4882911;28;20404;-75
2021/12/08 07:26:27;;;;;;;13.88;2.60;;;;;;;6.28;72.88;99424.22;4870003;29;20044;-71
2021/12/08 07:28:54;;;;;;;11.63;2.50;;;;;;;6.41;72.66;99427.75;4876293;29;20455;-71
2021/12/08 07:31:33;;;;;;;10.65;2.45;;;;;;;6.43;72.26;99436.41;4876274;29;20522;-74
2021/12/08 07:34:05;;;;;;;14.75;2.65;;;;;;;6.43;71.92;99437.28;4877202;29;20094;-73
2021/12/08 07:36:36;;;;;;;8.82;2.58;;;;;;;6.38;72.20;99435.53;4882546;29;20043;-73
2021/12/08 07:39:14;;;;;;;9.77;2.70;;;;;;;6.46;71.97;99433.84;4854063;29;20071;-73
2021/12/08 07:41:42;;;;;;;11.50;2.78;;;;;;;6.49;72.04;99441.63;4886640;29;20418;-74
2021/12/08 07:44:10;;;;;;;10.95;2.78;;;;;;;6.58;71.86;99438.25;4882111;29;20055;-72
2021/12/08 07:47:16;;;;;;;9.93;2.70;;;;;;;6.61;71.65;99451.19;4882361;29;20143;-73
2021/12/08 07:49:49;;;;;;;11.93;2.97;;;;;;;6.56;71.58;99445.13;4885546;29;20055;-75
2021/12/08 07:52:19;;;;;;;11.82;3.13;;;;;;;6.53;71.47;99445.97;4884653;28;20134;-75
2021/12/08 07:54:45;;;;;;;12.05;3.13;;;;;;;6.46;71.53;99439.88;4856355;28;20063;-73
2021/12/08 07:57:18;;;;;;;12.27;2.95;;;;;;;6.40;71.78;99441.59;4870368;29;20047;-73
2021/12/08 07:59:49;;;;;;;11.38;3.10;;;;;;;6.38;71.85;99444.16;4883538;29;20032;-74
2021/12/08 08:02:16;;;;;;;12.95;2.70;;;;;;;6.39;72.00;99443.31;4867458;29;20059;-74
2021/12/08 08:04:46;;;;;;;10.00;2.80;;;;;;;6.29;72.36;99450.97;4869418;29;20135;-73
2021/12/08 08:07:12;;;;;;;10.98;2.65;;;;;;;6.35;72.48;99446.69;4889412;29;20051;-72
2021/12/08 08:09:42;;;;;;;13.48;2.70;;;;;;;6.36;72.10;99455.34;4888176;28;20050;-73
2021/12/08 08:12:11;;;;;;;11.32;2.83;;;;;;;6.33;72.16;99452.75;4889074;28;20079;-74
2021/12/08 08:17:44;;;;;;;10.82;2.70;;;;;;;6.51;72.15;99447.69;4853237;28;20055;-73
2021/12/08 08:20:44;;;;;;;13.63;2.90;;;;;;;6.61;71.93;99458.97;4884828;29;20925;-72
2021/12/08 08:23:10;;;;;;;10.30;2.88;;;;;;;6.75;71.56;99465.97;4899456;28;20372;-74
2021/12/08 08:25:40;;;;;;;8.95;2.30;;;;;;;6.92;70.91;99459.16;4893039;29;20047;-75
2021/12/08 08:28:06;;;;;;;12.40;2.67;;;;;;;7.01;70.43;99462.69;4883105;28;20055;-74
2021/12/08 08:42:28;;;;;;;11.35;2.92;;;;;;;6.89;72.89;99460.88;5082024;27;20187;-62
2021/12/08 08:45:14;;;;;;;9.95;2.60;;;;;;;7.34;71.05;99448.13;5040647;28;20131;-62
2021/12/08 08:47:44;;;;;;;16.70;3.10;;;;;;;7.56;70.19;99446.44;5052387;28;20047;-61
2021/12/08 08:50:15;;;;;;;8.85;2.78;;;;;;;7.74;69.51;99456.88;5057754;28;20048;-59
2021/12/08 08:52:45;;;;;;;7.47;2.55;;;;;;;7.83;69.03;99465.53;5048858;27;20768;-60
2021/12/08 08:55:16;;;;;;;9.80;2.83;;;;;;;7.87;68.57;99462.94;5056223;28;20063;-59
2021/12/08 08:57:42;;;;;;;10.82;2.53;;;;;;;7.97;68.41;99472.50;5054972;28;20059;-59
2021/12/08 09:00:20;;;;;;;11.82;2.85;;;;;;;7.87;68.99;99468.13;5058652;28;20478;-59
2021/12/08 09:02:47;;;;;;;15.77;2.95;;;;;;;7.82;68.49;99479.38;5046793;28;20044;-61
2021/12/08 09:05:31;;;;;;;7.75;2.60;;;;;;;8.09;68.03;99475.09;5056918;28;20372;-60
2021/12/08 09:07:58;;;;;;;10.95;2.90;;;;;;;8.07;67.79;99489.78;5053791;28;20041;-60
2021/12/08 09:10:40;;;;;;;8.82;2.67;;;;;;;8.03;68.03;99489.81;5055814;28;20086;-59
2021/12/08 09:13:16;;;;;;;8.00;2.40;;;;;;;8.11;67.48;99478.53;5054018;28;20206;-59
2021/12/08 09:15:46;;;;;;;11.15;2.83;;;;;;;8.16;67.59;99475.97;5054626;28;20349;-59
2021/12/08 09:18:24;;;;;;;8.73;2.35;;;;;;;8.20;67.34;99479.44;5068664;27;20055;-61
2021/12/08 09:20:58;;;;;;;12.73;2.63;;;;;;;8.12;66.80;99471.63;5046108;28;20040;-60
2021/12/08 09:23:29;;;;;;;8.82;2.40;;;;;;;7.90;68.08;99475.06;5054136;28;20075;-61
2021/12/08 09:25:59;;;;;;;8.68;2.60;;;;;;;7.99;67.32;99480.28;5051285;28;20046;-60
2021/12/08 09:28:30;;;;;;;11.15;2.72;;;;;;;7.91;67.42;99480.28;5056231;28;20048;-60
2021/12/08 09:31:06;;;;;;;9.98;2.60;;;;;;;7.98;66.88;99494.13;5048837;28;20538;-60
2021/12/08 09:33:39;;;;;;;9.32;2.80;;;;;;;7.98;67.40;99491.53;5051970;28;20082;-61
2021/12/08 09:36:09;;;;;;;10.02;2.97;;;;;;;7.88;67.88;99498.41;5053201;28;20494;-60
2021/12/08 09:38:39;;;;;;;8.27;2.90;;;;;;;7.88;67.21;99506.19;5054831;28;20878;-59
2021/12/08 09:41:39;;;;;;;7.47;2.85;;;;;;;7.95;67.11;99507.94;5057203;28;20185;-60
2021/12/08 09:44:18;;;;;;;7.82;2.90;;;;;;;7.91;67.39;99519.19;5038153;28;21057;-61
2021/12/08 09:46:48;;;;;;;11.93;3.17;;;;;;;7.84;67.32;99513.97;5049857;28;20071;-60
2021/12/08 09:49:16;;;;;;;12.82;3.33;;;;;;;8.00;66.56;99520.91;5050448;28;20048;-60
2021/12/08 09:51:42;;;;;;;12.00;3.45;;;;;;;8.00;66.18;99519.19;5052378;28;20051;-59
2021/12/08 09:54:07;;;;;;;12.25;3.47;;;;;;;7.98;66.86;99526.13;5040600;28;20045;-60
2021/12/08 09:56:34;;;;;;;11.75;3.35;;;;;;;7.95;66.07;99528.72;5040229;28;20137;-60
2021/12/08 09:59:01;;;;;;;9.18;3.20;;;;;;;7.88;66.38;99534.75;5034151;28;20071;-61
2021/12/08 10:01:28;;;;;;;10.82;3.25;;;;;;;7.80;67.19;99548.56;5044231;28;20098;-60
2021/12/08 10:03:54;;;;;;;7.85;2.95;;;;;;;7.75;67.31;99546.81;5044633;28;20127;-60
2021/12/08 10:06:21;;;;;;;7.85;3.40;;;;;;;7.73;67.19;99555.47;5038549;28;20585;-60
2021/12/08 10:08:47;;;;;;;7.93;3.05;;;;;;;7.81;67.70;99550.31;5031398;28;20125;-60
2021/12/08 10:11:13;;;;;;;12.95;3.53;;;;;;;7.90;67.20;99550.31;5042439;28;20174;-60
2021/12/08 10:13:40;;;;;;;13.23;3.78;;;;;;;7.72;66.84;99552.00;5043068;28;20047;-59
2021/12/08 10:16:12;;;;;;;10.18;3.70;;;;;;;7.91;67.39;99559.84;5039412;28;20574;-60
2021/12/08 10:18:37;;;;;;;12.38;3.80;;;;;;;7.93;66.62;99553.78;5035774;28;20052;-61
2021/12/08 10:21:03;;;;;;;10.73;3.97;;;;;;;7.96;66.61;99551.22;5040920;28;20681;-61
2021/12/08 10:23:30;;;;;;;12.55;4.72;;;;;;;7.87;66.50;99560.69;5000223;28;20123;-60
2021/12/08 10:26:04;;;;;;;12.38;4.85;;;;;;;8.01;66.51;99546.88;5052201;28;20414;-59
2021/12/08 10:28:44;;;;;;;11.43;4.60;;;;;;;7.98;66.59;99549.50;5041574;28;20055;-60
2021/12/08 10:31:15;;;;;;;12.52;4.85;;;;;;;7.98;66.55;99546.91;5040937;28;20973;-60
2021/12/08 10:34:28;;;;;;;9.75;4.45;;;;;;;8.12;65.60;99554.69;5039917;28;20128;-60
2021/12/08 10:37:17;;;;;;;19.33;5.30;;;;;;;8.30;65.63;99549.56;4958487;28;21118;-60
2021/12/08 10:39:52;;;;;;;10.70;4.70;;;;;;;8.31;65.54;99548.69;4977240;28;20535;-60
2021/12/08 10:42:33;;;;;;;14.23;5.10;;;;;;;8.30;65.79;99541.78;4989544;28;20512;-60
2021/12/08 10:45:22;;;;;;;11.20;4.93;;;;;;;8.47;64.49;99550.47;4995724;28;20072;-60
2021/12/08 10:47:54;;;;;;;12.77;4.82;;;;;;;8.39;64.62;99544.41;5001450;28;20480;-60
2021/12/08 10:55:58;;;;;;;10.57;5.10;;;;;;;8.56;64.02;99544.41;5003340;28;20044;-59
2021/12/08 10:58:29;;;;;;;13.02;4.70;;;;;;;8.50;65.18;99552.19;4998601;28;20527;-59
2021/12/08 11:00:56;;;;;;;9.18;4.65;;;;;;;8.63;64.94;99545.25;4997491;28;20049;-58
2021/12/08 11:03:22;;;;;;;9.43;4.55;;;;;;;8.31;65.35;99542.66;4999971;28;20045;-59
2021/12/08 11:05:52;;;;;;;15.00;5.00;;;;;;;8.50;64.80;99541.78;4998819;28;20049;-59
2021/12/08 11:08:17;;;;;;;13.27;5.05;;;;;;;8.41;64.85;99531.41;5003053;28;20037;-60
2021/12/08 11:10:54;;;;;;;14.18;5.07;;;;;;;8.46;65.09;99543.53;4994511;28;20037;-60
2021/12/08 11:13:32;;;;;;;11.48;4.68;;;;;;;8.51;65.46;99540.94;4998083;28;20045;-59
2021/12/08 11:16:14;;;;;;;14.13;4.80;;;;;;;8.54;64.77;99549.59;4994111;28;20099;-59
2021/12/08 11:18:42;;;;;;;12.30;4.20;;;;;;;8.57;64.39;99546.13;4989739;28;20046;-61
2021/12/08 11:21:20;;;;;;;9.02;4.13;;;;;;;8.57;64.80;99553.94;4999786;28;20037;-62
2021/12/08 11:23:48;;;;;;;9.27;4.20;;;;;;;8.82;64.50;99558.25;4998043;28;20114;-59
2021/12/08 11:26:37;;;;;;;10.82;4.25;;;;;;;8.96;63.78;99555.66;4999485;28;20033;-60
2021/12/08 11:29:05;;;;;;;9.40;4.13;;;;;;;9.08;63.84;99560.84;4993463;28;20049;-59
2021/12/08 11:31:35;;;;;;;12.93;4.63;;;;;;;9.13;63.08;99566.88;4996954;28;20140;-59
2021/12/08 11:34:04;;;;;;;12.02;4.45;;;;;;;9.11;63.21;99570.34;5001547;28;20076;-60
2021/12/08 11:36:36;;;;;;;12.15;4.47;;;;;;;9.14;63.33;99563.44;4999830;28;20252;-59
2021/12/08 11:39:08;;;;;;;11.10;4.40;;;;;;;9.16;63.56;99571.19;5000339;28;20053;-59
2021/12/08 11:41:49;;;;;;;10.32;4.80;;;;;;;9.21;62.88;99565.13;5025959;28;20044;-58
2021/12/08 11:44:24;;;;;;;11.05;4.60;;;;;;;8.94;63.31;99565.19;5054562;28;20052;-59
2021/12/08 11:46:52;;;;;;;12.35;4.80;;;;;;;8.90;63.20;99571.25;5029682;28;20044;-60
2021/12/08 11:49:18;;;;;;;13.40;4.85;;;;;;;8.78;64.66;99569.50;5038442;28;20197;-59
2021/12/08 11:51:43;;;;;;;11.52;4.63;;;;;;;8.76;63.82;99568.66;5036408;28;20052;-60
2021/12/08 11:54:30;;;;;;;9.80;4.90;;;;;;;8.84;64.15;99556.50;5036328;28;20588;-59
2021/12/08 11:57:08;;;;;;;11.88;4.88;;;;;;;8.78;64.00;99571.25;5029670;28;20070;-59
2021/12/08 11:59:33;;;;;;;13.48;5.28;;;;;;;8.75;64.43;99564.31;5035340;28;20140;-59
2021/12/08 12:01:59;;;;;;;10.35;4.90;;;;;;;8.66;64.26;99566.91;5035774;28;20048;-59
2021/12/08 12:04:24;;;;;;;12.23;5.10;;;;;;;8.64;63.94;99558.25;5035637;28;20040;-59
2021/12/08 12:06:50;;;;;;;13.38;4.57;;;;;;;8.59;64.93;99561.72;5033408;28;20048;-60
2021/12/08 12:09:16;;;;;;;13.20;4.80;;;;;;;8.53;64.20;99562.59;5039854;28;20348;-60
2021/12/08 12:11:41;;;;;;;11.95;4.60;;;;;;;8.56;64.78;99559.97;5039747;28;20476;-60
2021/12/08 12:14:06;;;;;;;10.25;4.25;;;;;;;8.51;64.81;99569.50;5036144;28;20094;-59
2021/12/08 12:16:32;;;;;;;10.43;4.65;;;;;;;8.40;65.88;99566.91;5036650;28;20398;-59
2021/12/08 12:19:02;;;;;;;9.93;4.50;;;;;;;8.57;64.79;99574.72;5034965;28;20039;-59
2021/12/08 12:21:41;;;;;;;11.73;4.88;;;;;;;8.57;65.33;99577.31;5032273;28;20044;-59
2021/12/08 12:24:32;;;;;;;16.60;4.85;;;;;;;8.51;65.34;99574.69;5034703;28;20487;-59
2021/12/08 12:27:09;;;;;;;9.88;4.30;;;;;;;8.61;64.55;99578.16;5032445;28;20091;-60
2021/12/08 12:30:12;;;;;;;13.10;4.80;;;;;;;8.57;64.73;99581.63;5039322;28;20036;-59
2021/12/08 12:32:47;;;;;;;18.52;4.93;;;;;;;8.61;64.34;99575.56;4987090;28;20477;-61
2021/12/08 12:35:23;;;;;;;16.85;4.50;;;;;;;8.64;64.55;99573.84;5027174;28;20117;-59
2021/12/08 12:38:07;;;;;;;13.57;4.30;;;;;;;8.57;64.86;99577.31;5036168;28;20341;-59
2021/12/08 12:40:41;;;;;;;11.48;3.90;;;;;;;8.58;64.83;99585.97;5036958;28;20067;-59
2021/12/08 12:43:07;;;;;;;11.50;4.03;;;;;;;8.59;64.67;99587.69;5034895;28;20110;-59
2021/12/08 12:45:39;;;;;;;10.50;3.97;;;;;;;8.58;65.13;99591.16;5037845;28;20097;-59
2021/12/08 12:48:26;;;;;;;13.63;3.95;;;;;;;8.63;64.70;99603.28;5034424;28;20479;-59
2021/12/08 12:51:04;;;;;;;10.63;4.28;;;;;;;8.57;65.35;99597.22;5032171;28;20424;-59
2021/12/08 12:53:37;;;;;;;10.85;4.47;;;;;;;8.58;65.07;99599.81;5032408;28;20149;-60
2021/12/08 12:56:02;;;;;;;13.20;4.47;;;;;;;8.57;64.89;99605.00;5035949;28;20151;-59
2021/12/08 12:58:41;;;;;;;11.50;4.65;;;;;;;8.51;65.30;99608.47;5037213;28;20513;-59
2021/12/08 13:01:09;;;;;;;11.23;4.60;;;;;;;8.59;64.82;99605.88;5033490;28;20406;-60
2021/12/08 13:03:38;;;;;;;11.27;4.60;;;;;;;8.57;64.75;99611.06;5038656;28;20025;-60
2021/12/08 13:06:05;;;;;;;14.57;4.80;;;;;;;8.50;64.96;99612.78;5046327;28;20044;-60
2021/12/08 13:08:37;;;;;;;13.75;5.00;;;;;;;8.49;65.27;99613.66;5036825;28;20181;-60
2021/12/08 13:11:21;;;;;;;15.35;4.90;;;;;;;8.45;65.35;99614.53;5036908;28;20316;-59
2021/12/08 13:13:53;;;;;;;13.68;4.63;;;;;;;8.52;64.84;99620.59;5041589;28;20090;-59
2021/12/08 13:16:24;;;;;;;15.23;5.30;;;;;;;8.52;65.16;99637.06;5034382;28;20864;-59
2021/12/08 13:19:01;;;;;;;15.43;4.88;;;;;;;8.50;65.14;99638.78;5029066;28;20546;-59
2021/12/08 13:21:46;;;;;;;15.48;4.78;;;;;;;8.42;65.48;99655.19;5036141;28;20391;-58
2021/12/08 13:24:36;;;;;;;11.45;4.40;;;;;;;8.47;65.30;99646.56;5039009;28;20044;-60
2021/12/08 13:27:04;;;;;;;7.70;3.90;;;;;;;8.74;64.64;99656.13;5032053;28;20268;-59
2021/12/08 13:29:32;;;;;;;12.52;4.40;;;;;;;8.68;64.50;99650.03;5042050;28;20486;-59
2021/12/08 13:32:15;;;;;;;9.55;3.85;;;;;;;8.85;64.19;99661.31;5039818;28;20440;-59
2021/12/08 13:34:54;;;;;;;8.15;3.67;;;;;;;8.86;64.93;99653.53;5036121;28;20492;-59
2021/12/08 13:37:28;;;;;;;11.43;3.67;;;;;;;8.90;64.04;99665.66;5043337;28;20369;-59
2021/12/08 13:39:54;;;;;;;11.40;3.90;;;;;;;9.01;63.92;99663.09;5041051;28;20052;-60
2021/12/08 13:42:27;;;;;;;11.40;3.38;;;;;;;9.05;63.71;99664.81;5038765;28;20372;-60
2021/12/08 13:45:14;;;;;;;9.35;3.25;;;;;;;8.98;63.47;99672.59;5031764;28;20051;-59
2021/12/08 13:47:42;;;;;;;7.95;3.05;;;;;;;9.05;63.75;99670.00;5041943;28;20097;-60
2021/12/08 13:50:07;;;;;;;9.02;3.40;;;;;;;9.02;63.98;99674.34;5031817;28;20040;-59
2021/12/08 13:52:35;;;;;;;10.98;3.72;;;;;;;8.96;63.76;99676.06;5040874;28;20091;-59
2021/12/08 13:55:23;;;;;;;10.25;3.60;;;;;;;8.88;63.99;99671.75;5036155;28;20032;-59
2021/12/08 13:58:04;;;;;;;12.73;3.60;;;;;;;8.82;64.02;99672.59;5042810;28;20493;-59
2021/12/08 14:00:37;;;;;;;8.82;3.75;;;;;;;8.84;63.86;99670.84;5042198;28;20040;-59